Wetterdaten: Sonntag, 03.11.2013
Datum Zeit Temperatur Luftfeuchte Luftdruck Regen Wind Richtung Richtung Taupunkt Windchill Windben
03.11.2013 00:00 5,4 C 91 % 1012,2 hPa 0,0 l/m 0,0 km/h (0 Bft) N 360 4,1 C 5,7 C 0,0 km/h (0 Bft)
03.11.2013 00:05 5,6 C 91 % 1012,2 hPa 0,0 l/m 0,0 km/h (0 Bft) W-NW 292 4,2 C 5,8 C 0,0 km/h (0 Bft)
03.11.2013 00:10 5,7 C 91 % 1012,1 hPa 0,0 l/m 0,0 km/h (0 Bft) W-NW 292 4,3 C 5,9 C 0,0 km/h (0 Bft)
03.11.2013 00:15 5,9 C 91 % 1012,1 hPa 0,0 l/m 0,0 km/h (0 Bft) N-NO 22 4,5 C 5,9 C 0,0 km/h (0 Bft)
03.11.2013 00:20 5,8 C 92 % 1012,1 hPa 0,0 l/m 0,0 km/h (0 Bft) N 360 4,6 C 6,2 C 0,0 km/h (0 Bft)
03.11.2013 00:25 5,7 C 92 % 1012,1 hPa 0,0 l/m 0,0 km/h (0 Bft) NO 45 4,5 C 6,1 C 0,0 km/h (0 Bft)
03.11.2013 00:30 6,0 C 90 % 1011,8 hPa 0,0 l/m 0,0 km/h (0 Bft) NW 315 4,5 C 6,2 C 0,0 km/h (0 Bft)
03.11.2013 00:35 5,8 C 92 % 1011,8 hPa 0,0 l/m 0,0 km/h (0 Bft) NW 315 4,6 C 6,1 C 0,0 km/h (0 Bft)
03.11.2013 00:40 6,0 C 91 % 1011,8 hPa 0,0 l/m 0,3 km/h (0 Bft) NO 45 4,6 C 6,1 C 3,5 km/h (1 Bft)
03.11.2013 00:45 6,6 C 91 % 1011,8 hPa 0,0 l/m 1,6 km/h (1 Bft) O 90 5,2 C 6,3 C 1,6 km/h (1 Bft)
03.11.2013 00:50 6,3 C 91 % 1011,2 hPa 0,0 l/m 1,9 km/h (1 Bft) S 180 4,9 C 6,4 C 4,8 km/h (1 Bft)
03.11.2013 00:55 6,2 C 91 % 1011,2 hPa 0,0 l/m 1,0 km/h (0 Bft) NO 45 4,8 C 6,4 C 0,0 km/h (0 Bft)
03.11.2013 01:00 6,1 C 92 % 1011,2 hPa 0,0 l/m 0,2 km/h (0 Bft) O 90 4,9 C 6,3 C 0,0 km/h (0 Bft)
03.11.2013 01:05 6,3 C 92 % 1011,2 hPa 0,0 l/m 0,8 km/h (0 Bft) NO 45 5,1 C 6,3 C 2,3 km/h (1 Bft)
03.11.2013 01:10 7,0 C 92 % 1010,9 hPa 0,0 l/m 1,1 km/h (1 Bft) O 90 5,8 C 6,4 C 1,8 km/h (1 Bft)
03.11.2013 01:15 6,9 C 92 % 1010,9 hPa 0,0 l/m 0,6 km/h (0 Bft) O-NO 67 5,7 C 6,6 C 2,1 km/h (1 Bft)
03.11.2013 01:20 6,8 C 92 % 1010,9 hPa 0,0 l/m 0,2 km/h (0 Bft) O-SO 112 5,6 C 6,8 C 0,0 km/h (0 Bft)
03.11.2013 01:25 6,4 C 91 % 1010,9 hPa 0,0 l/m 0,2 km/h (0 Bft) O-SO 112 5,0 C 6,8 C 0,0 km/h (0 Bft)
03.11.2013 01:30 6,2 C 91 % 1010,4 hPa 0,0 l/m 0,0 km/h (0 Bft) O-SO 112 4,8 C 6,5 C 0,0 km/h (0 Bft)
03.11.2013 01:35 6,0 C 91 % 1010,4 hPa 0,0 l/m 0,0 km/h (0 Bft) O-SO 112 4,6 C 6,4 C 0,0 km/h (0 Bft)
03.11.2013 01:41 6,1 C 91 % 1010,4 hPa 0,0 l/m 0,0 km/h (0 Bft) O-SO 112 4,7 C 6,2 C 0,0 km/h (0 Bft)
03.11.2013 01:45 6,2 C 91 % 1010,4 hPa 0,0 l/m 0,3 km/h (0 Bft) NO 45 4,8 C 6,4 C 0,0 km/h (0 Bft)
03.11.2013 01:50 6,1 C 91 % 1010,2 hPa 0,0 l/m 0,3 km/h (0 Bft) NO 45 4,7 C 6,4 C 0,0 km/h (0 Bft)
03.11.2013 01:56 6,2 C 91 % 1010,2 hPa 0,0 l/m 0,3 km/h (0 Bft) O 90 4,8 C 6,3 C 0,0 km/h (0 Bft)
03.11.2013 02:00 6,5 C 91 % 1010,2 hPa 0,0 l/m 1,0 km/h (0 Bft) NO 45 5,1 C 6,4 C 4,3 km/h (1 Bft)
03.11.2013 02:05 7,0 C 91 % 1010,2 hPa 0,0 l/m 1,4 km/h (1 Bft) O-SO 112 5,6 C 6,6 C 0,0 km/h (0 Bft)
03.11.2013 02:10 7,2 C 91 % 1010,0 hPa 0,0 l/m 1,9 km/h (1 Bft) NO 45 5,8 C 6,9 C 5,1 km/h (1 Bft)
03.11.2013 02:15 6,8 C 91 % 1010,0 hPa 0,0 l/m 1,4 km/h (1 Bft) W-SW 247 5,4 C 7,0 C 2,6 km/h (1 Bft)
03.11.2013 02:20 6,6 C 91 % 1010,0 hPa 0,0 l/m 1,0 km/h (0 Bft) O 90 5,2 C 6,7 C 1,9 km/h (1 Bft)
03.11.2013 02:25 6,8 C 91 % 1010,0 hPa 0,0 l/m 1,6 km/h (1 Bft) NO 45 5,4 C 6,5 C 3,4 km/h (1 Bft)
03.11.2013 02:30 6,5 C 91 % 1010,2 hPa 0,0 l/m 2,1 km/h (1 Bft) O 90 5,1 C 6,6 C 1,9 km/h (1 Bft)
03.11.2013 02:35 6,8 C 91 % 1010,2 hPa 0,0 l/m 1,8 km/h (1 Bft) O 90 5,4 C 6,4 C 5,1 km/h (1 Bft)
03.11.2013 02:40 7,2 C 91 % 1010,2 hPa 0,0 l/m 2,3 km/h (1 Bft) O 90 5,8 C 6,7 C 5,8 km/h (2 Bft)
03.11.2013 02:45 7,1 C 90 % 1010,2 hPa 0,0 l/m 2,1 km/h (1 Bft) S-SO 157 5,6 C 6,8 C 2,3 km/h (1 Bft)
03.11.2013 02:50 6,5 C 90 % 1010,2 hPa 0,0 l/m 0,5 km/h (0 Bft) O 90 5,0 C 6,8 C 0,0 km/h (0 Bft)
03.11.2013 02:55 7,0 C 90 % 1010,2 hPa 0,0 l/m 0,8 km/h (0 Bft) NO 45 5,5 C 6,8 C 1,9 km/h (1 Bft)
03.11.2013 02:57 7,6 C 90 % 1010,2 hPa 0,0 l/m 1,9 km/h (1 Bft) O 90 6,1 C 7,4 C 4,2 km/h (1 Bft)
03.11.2013 03:06 7,6 C 90 % 1010,2 hPa 0,0 l/m 1,9 km/h (1 Bft) O 90 6,1 C 7,4 C 4,2 km/h (1 Bft)
03.11.2013 03:10 7,9 C 91 % 1010,5 hPa 0,0 l/m 2,1 km/h (1 Bft) NO 45 6,5 C 7,6 C 2,7 km/h (1 Bft)
03.11.2013 03:17 8,0 C 90 % 1010,5 hPa 0,0 l/m 1,3 km/h (1 Bft) NO 45 6,5 C 8,1 C 3,1 km/h (1 Bft)
03.11.2013 03:20 8,0 C 90 % 1010,5 hPa 0,0 l/m 1,3 km/h (1 Bft) NO 45 6,5 C 8,1 C 3,1 km/h (1 Bft)
03.11.2013 03:25 8,1 C 90 % 1010,5 hPa 0,0 l/m 1,1 km/h (1 Bft) NO 45 6,6 C 8,3 C 0,0 km/h (0 Bft)
03.11.2013 03:30 7,9 C 90 % 1009,9 hPa 0,0 l/m 1,8 km/h (1 Bft) W-SW 247 6,4 C 8,3 C 2,7 km/h (1 Bft)
03.11.2013 03:33 7,9 C 90 % 1009,9 hPa 0,0 l/m 1,9 km/h (1 Bft) N-NW 337 6,4 C 8,2 C 4,7 km/h (1 Bft)
03.11.2013 03:35 7,9 C 90 % 1009,9 hPa 0,0 l/m 1,9 km/h (1 Bft) N-NW 337 6,4 C 8,2 C 4,7 km/h (1 Bft)
03.11.2013 03:40 7,7 C 89 % 1009,9 hPa 0,0 l/m 2,3 km/h (1 Bft) W-NW 292 6,0 C 8,1 C 6,3 km/h (2 Bft)
03.11.2013 03:45 7,6 C 89 % 1009,9 hPa 0,0 l/m 1,9 km/h (1 Bft) S 180 5,9 C 8,0 C 0,0 km/h (0 Bft)
03.11.2013 03:50 7,7 C 89 % 1010,0 hPa 0,0 l/m 1,6 km/h (1 Bft) S 180 6,0 C 8,0 C 6,3 km/h (2 Bft)
03.11.2013 03:55 7,7 C 89 % 1010,0 hPa 0,0 l/m 2,3 km/h (1 Bft) SW 225 6,0 C 8,0 C 3,4 km/h (1 Bft)
03.11.2013 04:00 7,7 C 89 % 1010,0 hPa 0,0 l/m 2,7 km/h (1 Bft) S-SW 202 6,0 C 8,0 C 10,6 km/h (2 Bft)
03.11.2013 04:05 7,7 C 89 % 1010,0 hPa 0,0 l/m 2,7 km/h (1 Bft) S-SW 202 6,0 C 8,0 C 5,1 km/h (1 Bft)
03.11.2013 04:10 7,8 C 89 % 1009,9 hPa 0,0 l/m 2,1 km/h (1 Bft) O 90 6,1 C 8,1 C 0,0 km/h (0 Bft)
03.11.2013 04:15 7,9 C 89 % 1009,9 hPa 0,0 l/m 1,6 km/h (1 Bft) SO 135 6,2 C 8,2 C 2,6 km/h (1 Bft)
03.11.2013 04:20 8,6 C 89 % 1009,9 hPa 0,0 l/m 3,2 km/h (1 Bft) S 180 6,9 C 8,6 C 5,5 km/h (1 Bft)
03.11.2013 04:25 9,0 C 88 % 1009,9 hPa 0,0 l/m 6,0 km/h (2 Bft) S 180 7,1 C 8,1 C 9,5 km/h (2 Bft)
03.11.2013 04:30 9,0 C 89 % 1010,4 hPa 0,0 l/m 8,0 km/h (2 Bft) S 180 7,3 C 6,5 C 14,8 km/h (3 Bft)
03.11.2013 04:35 8,8 C 90 % 1010,4 hPa 0,7 l/m 9,0 km/h (2 Bft) S-SO 157 7,3 C 5,8 C 7,2 km/h (2 Bft)
03.11.2013 04:40 8,7 C 91 % 1010,4 hPa 0,7 l/m 7,2 km/h (2 Bft) S 180 7,3 C 7,4 C 15,1 km/h (3 Bft)
03.11.2013 04:45 8,8 C 92 % 1010,4 hPa 0,0 l/m 6,0 km/h (2 Bft) SO 135 7,6 C 8,3 C 9,7 km/h (2 Bft)
03.11.2013 04:50 8,8 C 92 % 1010,6 hPa 0,7 l/m 6,0 km/h (2 Bft) S 180 7,6 C 8,4 C 6,9 km/h (2 Bft)
03.11.2013 04:55 8,8 C 92 % 1010,6 hPa 0,0 l/m 6,4 km/h (2 Bft) S-SO 157 7,6 C 8,3 C 11,1 km/h (2 Bft)
03.11.2013 05:00 8,8 C 93 % 1010,6 hPa 0,7 l/m 8,0 km/h (2 Bft) S-SO 157 7,7 C 6,6 C 21,6 km/h (4 Bft)
03.11.2013 05:05 8,8 C 93 % 1010,6 hPa 0,0 l/m 10,6 km/h (2 Bft) S 180 7,7 C 4,3 C 7,2 km/h (2 Bft)
03.11.2013 05:10 8,8 C 93 % 1010,8 hPa 0,0 l/m 9,8 km/h (2 Bft) S 180 7,7 C 4,9 C 23,2 km/h (4 Bft)
03.11.2013 05:15 8,8 C 93 % 1010,8 hPa 0,7 l/m 7,6 km/h (2 Bft) S-SO 157 7,7 C 7,0 C 10,0 km/h (2 Bft)
03.11.2013 05:20 8,8 C 93 % 1010,8 hPa 0,0 l/m 9,2 km/h (2 Bft) SO 135 7,7 C 5,5 C 11,1 km/h (2 Bft)
03.11.2013 05:25 8,7 C 93 % 1010,8 hPa 0,7 l/m 10,1 km/h (2 Bft) S-SW 202 7,6 C 4,7 C 9,8 km/h (2 Bft)
03.11.2013 05:30 8,7 C 94 % 1010,8 hPa 0,0 l/m 9,2 km/h (2 Bft) S-SO 157 7,8 C 5,3 C 11,3 km/h (2 Bft)
03.11.2013 05:35 8,7 C 94 % 1010,8 hPa 0,0 l/m 9,3 km/h (2 Bft) S 180 7,8 C 5,2 C 11,6 km/h (2 Bft)
03.11.2013 05:40 8,6 C 94 % 1010,8 hPa 0,0 l/m 8,4 km/h (2 Bft) S-SO 157 7,7 C 5,9 C 7,7 km/h (2 Bft)
03.11.2013 05:45 8,5 C 94 % 1010,8 hPa 0,7 l/m 9,3 km/h (2 Bft) S-SW 202 7,6 C 5,1 C 13,2 km/h (3 Bft)
03.11.2013 05:50 8,3 C 94 % 1010,6 hPa 0,0 l/m 10,3 km/h (2 Bft) S-SO 157 7,4 C 4,0 C 8,0 km/h (2 Bft)
03.11.2013 05:55 8,2 C 94 % 1010,6 hPa 0,0 l/m 10,1 km/h (2 Bft) S-SO 157 7,3 C 4,1 C 15,4 km/h (3 Bft)
03.11.2013 06:00 8,0 C 94 % 1010,6 hPa 0,0 l/m 8,0 km/h (2 Bft) S 180 7,1 C 5,6 C 6,6 km/h (2 Bft)
03.11.2013 06:05 7,9 C 94 % 1010,6 hPa 0,7 l/m 7,2 km/h (2 Bft) S-SW 202 7,0 C 6,5 C 5,0 km/h (1 Bft)
03.11.2013 06:10 7,9 C 94 % 1010,2 hPa 0,0 l/m 5,5 km/h (1 Bft) SO 135 7,0 C 7,6 C 1,9 km/h (1 Bft)
03.11.2013 06:15 7,9 C 94 % 1010,2 hPa 0,0 l/m 3,5 km/h (1 Bft) S 180 7,0 C 8,2 C 3,5 km/h (1 Bft)
03.11.2013 06:20 7,9 C 94 % 1010,2 hPa 0,0 l/m 1,8 km/h (1 Bft) S 180 7,0 C 8,1 C 0,0 km/h (0 Bft)
03.11.2013 06:25 7,8 C 94 % 1010,2 hPa 0,0 l/m 1,1 km/h (1 Bft) O-SO 112 6,9 C 8,1 C 1,6 km/h (1 Bft)
03.11.2013 06:30 7,8 C 94 % 1009,6 hPa 0,0 l/m 0,8 km/h (0 Bft) N-NO 22 6,9 C 8,1 C 2,3 km/h (1 Bft)
03.11.2013 06:35 7,7 C 94 % 1009,6 hPa 0,0 l/m 0,6 km/h (0 Bft) NO 45 6,8 C 8,0 C 0,0 km/h (0 Bft)
03.11.2013 06:40 7,7 C 94 % 1009,6 hPa 0,0 l/m 0,2 km/h (0 Bft) N 360 6,8 C 7,9 C 1,6 km/h (1 Bft)
03.11.2013 06:45 7,7 C 94 % 1009,6 hPa 0,0 l/m 0,0 km/h (0 Bft) N 360 6,8 C 7,9 C 0,0 km/h (0 Bft)
03.11.2013 06:50 7,7 C 94 % 1008,9 hPa 0,0 l/m 0,5 km/h (0 Bft) W-SW 247 6,8 C 7,9 C 0,0 km/h (0 Bft)
03.11.2013 06:55 7,6 C 94 % 1008,9 hPa 0,0 l/m 0,6 km/h (0 Bft) W-SW 247 6,7 C 7,9 C 0,0 km/h (0 Bft)
03.11.2013 07:00 7,7 C 95 % 1008,9 hPa 0,0 l/m 0,3 km/h (0 Bft) NO 45 7,0 C 7,9 C 4,8 km/h (1 Bft)
03.11.2013 07:05 7,7 C 95 % 1008,9 hPa 0,0 l/m 0,6 km/h (0 Bft) W-SW 247 7,0 C 7,9 C 0,0 km/h (0 Bft)
03.11.2013 07:10 7,6 C 95 % 1008,2 hPa 0,0 l/m 0,6 km/h (0 Bft) S 180 6,9 C 7,9 C 1,9 km/h (1 Bft)
03.11.2013 07:15 7,6 C 95 % 1008,2 hPa 0,0 l/m 1,0 km/h (0 Bft) O-NO 67 6,9 C 7,9 C 3,9 km/h (1 Bft)
03.11.2013 07:20 7,6 C 95 % 1008,2 hPa 0,0 l/m 1,6 km/h (1 Bft) O-NO 67 6,9 C 7,9 C 2,3 km/h (1 Bft)
03.11.2013 07:25 7,7 C 95 % 1008,2 hPa 0,0 l/m 1,6 km/h (1 Bft) O 90 7,0 C 7,9 C 3,1 km/h (1 Bft)
03.11.2013 07:30 7,4 C 95 % 1008,1 hPa 0,0 l/m 2,1 km/h (1 Bft) S 180 6,7 C 7,9 C 6,4 km/h (2 Bft)
03.11.2013 07:35 7,4 C 95 % 1008,1 hPa 0,0 l/m 2,7 km/h (1 Bft) SO 135 6,7 C 7,8 C 4,5 km/h (1 Bft)
03.11.2013 07:40 7,3 C 95 % 1008,1 hPa 0,0 l/m 3,9 km/h (1 Bft) S-SO 157 6,6 C 7,6 C 4,0 km/h (1 Bft)
03.11.2013 07:45 7,3 C 95 % 1008,1 hPa 0,0 l/m 3,2 km/h (1 Bft) O-SO 112 6,6 C 7,7 C 2,3 km/h (1 Bft)
03.11.2013 07:50 7,4 C 95 % 1008,1 hPa 0,0 l/m 2,4 km/h (1 Bft) O-SO 112 6,7 C 7,7 C 3,7 km/h (1 Bft)
03.11.2013 07:55 7,4 C 95 % 1008,1 hPa 0,0 l/m 1,9 km/h (1 Bft) O-NO 67 6,7 C 7,7 C 0,0 km/h (0 Bft)
03.11.2013 08:00 7,6 C 95 % 1008,1 hPa 0,0 l/m 3,2 km/h (1 Bft) O 90 6,9 C 7,8 C 5,3 km/h (1 Bft)
03.11.2013 08:05 7,7 C 95 % 1008,1 hPa 0,0 l/m 3,9 km/h (1 Bft) S-SO 157 7,0 C 7,8 C 5,8 km/h (2 Bft)
03.11.2013 08:10 7,8 C 95 % 1008,0 hPa 0,0 l/m 3,5 km/h (1 Bft) NO 45 7,0 C 8,1 C 4,3 km/h (1 Bft)
03.11.2013 08:15 7,9 C 95 % 1008,0 hPa 0,0 l/m 3,2 km/h (1 Bft) NO 45 7,1 C 8,2 C 1,9 km/h (1 Bft)
03.11.2013 08:20 7,9 C 95 % 1008,0 hPa 0,0 l/m 1,6 km/h (1 Bft) N-NO 22 7,1 C 8,3 C 1,6 km/h (1 Bft)
03.11.2013 08:25 7,9 C 95 % 1008,0 hPa 0,0 l/m 1,1 km/h (1 Bft) S 180 7,1 C 8,3 C 0,0 km/h (0 Bft)
03.11.2013 08:28 7,9 C 95 % 1008,1 hPa 0,0 l/m 1,0 km/h (0 Bft) O-SO 112 7,1 C 8,2 C 0,0 km/h (0 Bft)
03.11.2013 08:30 7,9 C 95 % 1008,1 hPa 0,0 l/m 1,0 km/h (0 Bft) O-SO 112 7,1 C 8,2 C 0,0 km/h (0 Bft)
03.11.2013 08:35 8,0 C 95 % 1008,1 hPa 0,0 l/m 0,2 km/h (0 Bft) S-SO 157 7,2 C 8,3 C 0,0 km/h (0 Bft)
03.11.2013 08:40 8,0 C 95 % 1008,1 hPa 0,0 l/m 0,0 km/h (0 Bft) S-SW 202 7,2 C 8,3 C 0,0 km/h (0 Bft)
03.11.2013 08:45 8,0 C 95 % 1008,1 hPa 0,0 l/m 0,0 km/h (0 Bft) SW 225 7,2 C 8,3 C 0,0 km/h (0 Bft)
03.11.2013 08:50 8,0 C 95 % 1008,4 hPa 0,0 l/m 0,0 km/h (0 Bft) S-SO 157 7,2 C 8,3 C 0,0 km/h (0 Bft)
03.11.2013 08:55 8,0 C 95 % 1008,4 hPa 0,0 l/m 0,0 km/h (0 Bft) S-SW 202 7,2 C 8,3 C 0,0 km/h (0 Bft)
03.11.2013 09:00 8,2 C 95 % 1008,4 hPa 0,0 l/m 0,3 km/h (0 Bft) O 90 7,4 C 8,5 C 1,9 km/h (1 Bft)
03.11.2013 09:05 8,5 C 95 % 1008,4 hPa 0,0 l/m 0,8 km/h (0 Bft) O 90 7,7 C 8,7 C 0,0 km/h (0 Bft)
03.11.2013 09:10 8,6 C 95 % 1008,6 hPa 0,0 l/m 1,3 km/h (1 Bft) S 180 7,8 C 8,9 C 2,7 km/h (1 Bft)
03.11.2013 09:15 8,8 C 95 % 1008,6 hPa 0,0 l/m 1,4 km/h (1 Bft) S 180 8,0 C 9,0 C 2,6 km/h (1 Bft)
03.11.2013 09:20 8,6 C 95 % 1008,6 hPa 0,0 l/m 1,9 km/h (1 Bft) W-SW 247 7,8 C 9,2 C 3,9 km/h (1 Bft)
03.11.2013 09:25 8,6 C 95 % 1008,6 hPa 0,0 l/m 2,7 km/h (1 Bft) SO 135 7,8 C 9,2 C 7,2 km/h (2 Bft)
03.11.2013 09:30 8,5 C 95 % 1009,2 hPa 0,0 l/m 8,2 km/h (2 Bft) S 180 7,7 C 6,3 C 10,3 km/h (2 Bft)
03.11.2013 09:35 8,4 C 95 % 1009,2 hPa 0,0 l/m 11,9 km/h (2 Bft) S 180 7,6 C 2,9 C 23,2 km/h (4 Bft)
03.11.2013 09:40 8,1 C 95 % 1009,2 hPa 0,7 l/m 15,3 km/h (3 Bft) S 180 7,3 C 0,1 C 29,8 km/h (5 Bft)
03.11.2013 09:45 7,9 C 95 % 1009,2 hPa 0,7 l/m 15,8 km/h (3 Bft) SO 135 7,1 C -0,5 C 22,5 km/h (4 Bft)
03.11.2013 09:50 7,4 C 94 % 1010,4 hPa 0,0 l/m 15,8 km/h (3 Bft) S 180 6,5 C -1,1 C 33,5 km/h (5 Bft)
03.11.2013 09:55 7,2 C 94 % 1010,4 hPa 0,0 l/m 15,3 km/h (3 Bft) S-SW 202 6,3 C -1,3 C 11,7 km/h (2 Bft)
03.11.2013 10:00 6,9 C 94 % 1010,4 hPa 0,0 l/m 14,5 km/h (3 Bft) S-SO 157 6,0 C -1,4 C 18,8 km/h (3 Bft)
03.11.2013 10:05 6,7 C 93 % 1010,4 hPa 0,0 l/m 14,5 km/h (3 Bft) S 180 5,6 C -1,6 C 21,1 km/h (4 Bft)
03.11.2013 10:10 6,3 C 93 % 1011,1 hPa 0,7 l/m 16,9 km/h (3 Bft) S-SO 157 5,3 C -4,0 C 17,5 km/h (3 Bft)
03.11.2013 10:15 6,1 C 92 % 1011,1 hPa 0,0 l/m 18,3 km/h (3 Bft) S 180 4,9 C -5,1 C 15,4 km/h (3 Bft)
03.11.2013 10:20 5,8 C 93 % 1011,1 hPa 0,7 l/m 18,7 km/h (3 Bft) S 180 4,8 C -5,7 C 37,0 km/h (5 Bft)
03.11.2013 10:25 5,6 C 93 % 1011,1 hPa 0,0 l/m 18,3 km/h (3 Bft) S-SO 157 4,6 C -5,8 C 26,2 km/h (4 Bft)
03.11.2013 10:30 5,3 C 92 % 1011,9 hPa 0,0 l/m 17,7 km/h (3 Bft) O 90 4,1 C -6,1 C 12,1 km/h (2 Bft)
03.11.2013 10:35 5,2 C 92 % 1011,9 hPa 0,0 l/m 14,5 km/h (3 Bft) S-SW 202 4,0 C -3,9 C 11,7 km/h (2 Bft)
03.11.2013 10:40 5,0 C 92 % 1011,9 hPa 0,7 l/m 14,8 km/h (3 Bft) S-SO 157 3,8 C -4,3 C 26,7 km/h (4 Bft)
03.11.2013 10:45 4,9 C 92 % 1011,9 hPa 0,0 l/m 15,3 km/h (3 Bft) SO 135 3,7 C -5,1 C 12,6 km/h (3 Bft)
03.11.2013 10:50 4,9 C 93 % 1012,0 hPa 0,7 l/m 11,6 km/h (2 Bft) S-SO 157 3,9 C -2,2 C 11,1 km/h (2 Bft)
03.11.2013 10:55 4,9 C 93 % 1012,0 hPa 0,0 l/m 9,2 km/h (2 Bft) S 180 3,9 C 0,3 C 15,4 km/h (3 Bft)
03.11.2013 11:00 5,0 C 93 % 1012,0 hPa 0,0 l/m 9,8 km/h (2 Bft) S 180 4,0 C -0,3 C 6,8 km/h (2 Bft)
03.11.2013 11:05 5,1 C 93 % 1012,0 hPa 0,0 l/m 9,3 km/h (2 Bft) S-SW 202 4,1 C 0,5 C 9,8 km/h (2 Bft)
03.11.2013 11:10 5,2 C 93 % 1011,6 hPa 0,7 l/m 8,7 km/h (2 Bft) S-SO 157 4,2 C 1,2 C 11,7 km/h (2 Bft)
03.11.2013 11:15 5,1 C 93 % 1011,6 hPa 0,0 l/m 11,1 km/h (2 Bft) S 180 4,1 C -1,3 C 18,7 km/h (3 Bft)
03.11.2013 11:20 5,3 C 93 % 1011,6 hPa 0,0 l/m 13,5 km/h (3 Bft) S 180 4,3 C -3,3 C 16,1 km/h (3 Bft)
03.11.2013 11:25 5,4 C 93 % 1011,6 hPa 0,0 l/m 13,0 km/h (3 Bft) S 180 4,4 C -2,5 C 17,2 km/h (3 Bft)
03.11.2013 11:30 5,4 C 93 % 1011,2 hPa 0,0 l/m 11,7 km/h (2 Bft) S 180 4,4 C -1,5 C 9,2 km/h (2 Bft)
03.11.2013 11:35 5,2 C 93 % 1011,2 hPa 0,0 l/m 12,4 km/h (3 Bft) S-SW 202 4,2 C -2,0 C 11,1 km/h (2 Bft)
03.11.2013 11:40 5,1 C 93 % 1011,2 hPa 0,7 l/m 10,9 km/h (2 Bft) S 180 4,1 C -1,0 C 12,4 km/h (3 Bft)
03.11.2013 11:45 5,1 C 92 % 1011,2 hPa 0,0 l/m 10,0 km/h (2 Bft) S-SW 202 3,9 C -0,1 C 8,7 km/h (2 Bft)
03.11.2013 11:50 5,2 C 92 % 1011,4 hPa 0,0 l/m 9,8 km/h (2 Bft) NO 45 4,0 C 0,1 C 4,3 km/h (1 Bft)
03.11.2013 11:55 5,2 C 93 % 1011,4 hPa 0,0 l/m 9,5 km/h (2 Bft) S-SO 157 4,2 C 0,4 C 7,9 km/h (2 Bft)
03.11.2013 12:00 5,1 C 92 % 1011,4 hPa 0,0 l/m 8,9 km/h (2 Bft) S 180 3,9 C 1,1 C 8,7 km/h (2 Bft)
03.11.2013 12:05 5,0 C 92 % 1011,4 hPa 0,0 l/m 9,0 km/h (2 Bft) S 180 3,8 C 0,9 C 11,1 km/h (2 Bft)
03.11.2013 12:10 4,9 C 93 % 1011,8 hPa 0,0 l/m 9,7 km/h (2 Bft) S 180 3,9 C 0,1 C 11,4 km/h (2 Bft)
03.11.2013 12:15 4,9 C 93 % 1011,8 hPa 0,0 l/m 10,1 km/h (2 Bft) O-SO 112 3,9 C -0,7 C 7,1 km/h (2 Bft)
03.11.2013 12:20 5,0 C 93 % 1011,8 hPa 0,0 l/m 10,9 km/h (2 Bft) S 180 4,0 C -1,2 C 18,3 km/h (3 Bft)
03.11.2013 12:25 5,0 C 93 % 1011,8 hPa 0,0 l/m 11,1 km/h (2 Bft) S-SW 202 4,0 C -1,3 C 13,2 km/h (3 Bft)
03.11.2013 12:30 5,0 C 93 % 1011,8 hPa 0,0 l/m 11,7 km/h (2 Bft) S-SO 157 4,0 C -1,8 C 10,3 km/h (2 Bft)
03.11.2013 12:35 5,1 C 92 % 1011,8 hPa 0,0 l/m 11,9 km/h (2 Bft) S 180 3,9 C -1,9 C 10,1 km/h (2 Bft)
03.11.2013 12:40 5,1 C 92 % 1011,8 hPa 0,0 l/m 16,1 km/h (3 Bft) S 180 3,9 C -5,0 C 34,0 km/h (5 Bft)
03.11.2013 12:45 5,1 C 91 % 1011,8 hPa 0,0 l/m 17,4 km/h (3 Bft) S 180 3,8 C -6,0 C 14,0 km/h (3 Bft)
03.11.2013 12:50 5,3 C 91 % 1012,2 hPa 0,0 l/m 17,9 km/h (3 Bft) S 180 4,0 C -6,2 C 23,0 km/h (4 Bft)
03.11.2013 12:55 5,2 C 89 % 1012,2 hPa 0,0 l/m 18,5 km/h (3 Bft) S-SO 157 3,5 C -6,5 C 21,1 km/h (4 Bft)
03.11.2013 13:00 5,1 C 89 % 1012,2 hPa 0,0 l/m 20,9 km/h (4 Bft) S 180 3,4 C -8,3 C 39,3 km/h (6 Bft)
03.11.2013 13:05 5,1 C 89 % 1012,2 hPa 0,0 l/m 19,3 km/h (3 Bft) SO 135 3,4 C -7,4 C 26,1 km/h (4 Bft)
03.11.2013 13:10 5,4 C 89 % 1012,8 hPa 0,0 l/m 17,2 km/h (3 Bft) S 180 3,7 C -5,6 C 16,1 km/h (3 Bft)
03.11.2013 13:15 5,3 C 88 % 1012,8 hPa 0,0 l/m 16,9 km/h (3 Bft) S 180 3,5 C -5,3 C 16,9 km/h (3 Bft)
03.11.2013 13:20 4,8 C 87 % 1012,8 hPa 0,0 l/m 17,9 km/h (3 Bft) SO 135 2,8 C -6,3 C 16,6 km/h (3 Bft)
03.11.2013 13:25 4,6 C 87 % 1012,8 hPa 0,0 l/m 17,9 km/h (3 Bft) S-SO 157 2,6 C -6,5 C 21,4 km/h (4 Bft)
03.11.2013 13:28 4,6 C 88 % 1012,4 hPa 0,7 l/m 16,6 km/h (3 Bft) S-SO 157 2,8 C -5,7 C 19,8 km/h (3 Bft)
03.11.2013 13:30 4,6 C 88 % 1012,4 hPa 0,0 l/m 16,6 km/h (3 Bft) S-SO 157 2,8 C -5,7 C 19,8 km/h (3 Bft)
03.11.2013 13:35 4,6 C 88 % 1012,4 hPa 0,0 l/m 16,1 km/h (3 Bft) S-SO 157 2,8 C -5,3 C 18,2 km/h (3 Bft)
03.11.2013 13:40 4,6 C 88 % 1012,4 hPa 0,0 l/m 15,3 km/h (3 Bft) S-SO 157 2,8 C -4,4 C 24,5 km/h (4 Bft)
03.11.2013 13:45 4,7 C 88 % 1012,4 hPa 0,0 l/m 16,3 km/h (3 Bft) S 180 2,9 C -4,7 C 18,3 km/h (3 Bft)
03.11.2013 13:50 4,7 C 86 % 1012,5 hPa 0,0 l/m 17,2 km/h (3 Bft) S 180 2,6 C -4,7 C 22,5 km/h (4 Bft)
03.11.2013 13:55 4,6 C 86 % 1012,5 hPa 0,0 l/m 18,7 km/h (3 Bft) S 180 2,5 C -5,4 C 24,0 km/h (4 Bft)
03.11.2013 14:00 4,7 C 84 % 1012,5 hPa 0,0 l/m 19,6 km/h (3 Bft) SW 225 2,2 C -5,7 C 16,6 km/h (3 Bft)
03.11.2013 14:05 4,7 C 85 % 1012,5 hPa 0,0 l/m 19,2 km/h (3 Bft) S 180 2,4 C -5,5 C 30,3 km/h (5 Bft)
03.11.2013 14:10 4,9 C 82 % 1012,8 hPa 0,0 l/m 20,8 km/h (4 Bft) S 180 2,1 C -5,8 C 43,8 km/h (6 Bft)
03.11.2013 14:15 4,8 C 81 % 1012,8 hPa 0,0 l/m 22,0 km/h (4 Bft) S 180 1,8 C -6,4 C 22,4 km/h (4 Bft)
03.11.2013 14:20 4,8 C 80 % 1012,8 hPa 0,0 l/m 22,7 km/h (4 Bft) S 180 1,6 C -7,2 C 45,5 km/h (6 Bft)
03.11.2013 14:25 4,8 C 82 % 1012,8 hPa 0,0 l/m 20,1 km/h (4 Bft) S 180 2,0 C -6,1 C 26,6 km/h (4 Bft)
03.11.2013 14:30 5,1 C 80 % 1012,9 hPa 0,0 l/m 18,8 km/h (3 Bft) S 180 1,9 C -4,3 C 21,9 km/h (4 Bft)
03.11.2013 14:35 5,2 C 79 % 1012,9 hPa 0,0 l/m 19,2 km/h (3 Bft) S-SO 157 1,9 C -4,9 C 23,8 km/h (4 Bft)
03.11.2013 14:40 5,3 C 79 % 1012,9 hPa 0,0 l/m 17,1 km/h (3 Bft) N-NW 337 2,0 C -3,9 C 21,1 km/h (4 Bft)
03.11.2013 14:45 5,1 C 80 % 1012,9 hPa 0,0 l/m 17,1 km/h (3 Bft) S 180 1,9 C -4,2 C 18,2 km/h (3 Bft)
03.11.2013 14:50 5,1 C 81 % 1013,3 hPa 0,0 l/m 16,7 km/h (3 Bft) S 180 2,1 C -4,2 C 12,1 km/h (2 Bft)
03.11.2013 14:55 5,1 C 82 % 1013,3 hPa 0,0 l/m 15,1 km/h (3 Bft) S 180 2,3 C -3,3 C 12,1 km/h (2 Bft)
03.11.2013 15:00 5,2 C 83 % 1013,3 hPa 0,0 l/m 14,3 km/h (3 Bft) S 180 2,6 C -2,8 C 21,6 km/h (4 Bft)
03.11.2013 15:05 5,1 C 83 % 1013,3 hPa 0,0 l/m 15,1 km/h (3 Bft) S 180 2,5 C -3,6 C 17,1 km/h (3 Bft)
03.11.2013 15:10 5,2 C 83 % 1013,9 hPa 0,0 l/m 15,9 km/h (3 Bft) S-SO 157 2,6 C -4,2 C 21,9 km/h (4 Bft)
03.11.2013 15:15 5,1 C 83 % 1013,9 hPa 0,0 l/m 15,1 km/h (3 Bft) W-SW 247 2,5 C -3,6 C 14,2 km/h (3 Bft)
03.11.2013 15:20 5,2 C 83 % 1013,9 hPa 0,0 l/m 15,9 km/h (3 Bft) S 180 2,6 C -4,2 C 16,3 km/h (3 Bft)
03.11.2013 15:25 5,2 C 82 % 1013,9 hPa 0,0 l/m 17,4 km/h (3 Bft) S-SO 157 2,4 C -5,2 C 20,0 km/h (4 Bft)
03.11.2013 15:30 5,1 C 83 % 1013,9 hPa 0,0 l/m 15,9 km/h (3 Bft) SO 135 2,5 C -4,2 C 8,7 km/h (2 Bft)
03.11.2013 15:35 4,8 C 83 % 1013,9 hPa 0,0 l/m 13,8 km/h (3 Bft) S 180 2,2 C -2,9 C 22,7 km/h (4 Bft)
03.11.2013 15:40 4,8 C 84 % 1013,9 hPa 0,0 l/m 12,2 km/h (2 Bft) S-SW 202 2,3 C -1,9 C 13,0 km/h (3 Bft)
03.11.2013 15:45 4,8 C 84 % 1013,9 hPa 0,0 l/m 12,7 km/h (3 Bft) S 180 2,3 C -2,3 C 18,0 km/h (3 Bft)
03.11.2013 15:50 4,8 C 84 % 1014,2 hPa 0,0 l/m 12,9 km/h (3 Bft) S-SO 157 2,3 C -2,5 C 10,3 km/h (2 Bft)
03.11.2013 15:55 4,8 C 84 % 1014,2 hPa 0,0 l/m 12,4 km/h (3 Bft) S 180 2,3 C -2,0 C 17,5 km/h (3 Bft)
03.11.2013 16:00 4,6 C 84 % 1014,2 hPa 0,0 l/m 10,6 km/h (2 Bft) SO 135 2,1 C -0,8 C 11,6 km/h (2 Bft)
03.11.2013 16:05 4,5 C 85 % 1014,2 hPa 0,0 l/m 9,7 km/h (2 Bft) S-SO 157 2,2 C 0,2 C 8,0 km/h (2 Bft)
03.11.2013 16:10 4,5 C 85 % 1014,2 hPa 0,0 l/m 8,2 km/h (2 Bft) S 180 2,2 C 1,6 C 8,2 km/h (2 Bft)
03.11.2013 16:15 4,5 C 86 % 1014,2 hPa 0,0 l/m 7,6 km/h (2 Bft) S 180 2,4 C 2,4 C 5,5 km/h (1 Bft)
03.11.2013 16:20 4,4 C 86 % 1014,2 hPa 0,0 l/m 7,2 km/h (2 Bft) SO 135 2,3 C 2,5 C 7,2 km/h (2 Bft)
03.11.2013 16:25 4,4 C 86 % 1014,2 hPa 0,0 l/m 7,1 km/h (2 Bft) S 180 2,3 C 2,7 C 8,4 km/h (2 Bft)
03.11.2013 16:30 4,9 C 85 % 1014,2 hPa 0,0 l/m 9,3 km/h (2 Bft) SO 135 2,6 C 0,5 C 12,6 km/h (3 Bft)
03.11.2013 16:35 4,8 C 84 % 1014,2 hPa 0,0 l/m 10,6 km/h (2 Bft) S-SO 157 2,3 C -0,8 C 10,1 km/h (2 Bft)
03.11.2013 16:40 4,6 C 83 % 1014,2 hPa 0,0 l/m 12,4 km/h (3 Bft) S 180 2,0 C -2,6 C 17,2 km/h (3 Bft)
03.11.2013 16:45 4,3 C 83 % 1014,2 hPa 0,0 l/m 12,6 km/h (3 Bft) S 180 1,7 C -3,3 C 11,4 km/h (2 Bft)
03.11.2013 16:50 4,2 C 83 % 1013,9 hPa 0,0 l/m 11,6 km/h (2 Bft) S-SO 157 1,6 C -2,9 C 10,8 km/h (2 Bft)
03.11.2013 16:55 4,0 C 84 % 1013,9 hPa 0,0 l/m 10,0 km/h (2 Bft) S-SO 157 1,5 C -1,5 C 7,6 km/h (2 Bft)
03.11.2013 17:00 3,8 C 85 % 1013,9 hPa 0,0 l/m 9,3 km/h (2 Bft) S 180 1,5 C -0,9 C 15,6 km/h (3 Bft)
03.11.2013 17:05 3,8 C 85 % 1013,9 hPa 0,0 l/m 10,0 km/h (2 Bft) SO 135 1,5 C -1,6 C 19,6 km/h (3 Bft)
03.11.2013 17:10 3,7 C 84 % 1013,9 hPa 0,0 l/m 9,8 km/h (2 Bft) S-SO 157 1,3 C -1,4 C 8,4 km/h (2 Bft)
03.11.2013 17:15 3,8 C 84 % 1013,9 hPa 0,0 l/m 8,2 km/h (2 Bft) S 180 1,4 C 0,2 C 8,5 km/h (2 Bft)
03.11.2013 17:20 3,8 C 83 % 1013,9 hPa 0,0 l/m 7,1 km/h (2 Bft) O-SO 112 1,2 C 1,4 C 12,9 km/h (3 Bft)
03.11.2013 17:25 3,8 C 83 % 1013,9 hPa 0,0 l/m 7,2 km/h (2 Bft) SO 135 1,2 C 1,4 C 6,4 km/h (2 Bft)
03.11.2013 17:30 4,1 C 80 % 1013,9 hPa 0,0 l/m 8,5 km/h (2 Bft) S 180 1,0 C 0,2 C 6,4 km/h (2 Bft)
03.11.2013 17:35 4,0 C 79 % 1013,9 hPa 0,0 l/m 8,5 km/h (2 Bft) W-SW 247 0,7 C 0,4 C 9,2 km/h (2 Bft)
03.11.2013 17:40 4,1 C 78 % 1013,9 hPa 0,0 l/m 6,4 km/h (2 Bft) S 180 0,6 C 2,7 C 7,4 km/h (2 Bft)
03.11.2013 17:45 4,0 C 78 % 1013,9 hPa 0,0 l/m 6,8 km/h (2 Bft) S-SW 202 0,5 C 2,2 C 18,2 km/h (3 Bft)
03.11.2013 17:50 4,3 C 76 % 1014,0 hPa 0,0 l/m 8,7 km/h (2 Bft) O-SO 112 0,5 C 0,6 C 8,4 km/h (2 Bft)
03.11.2013 17:55 4,3 C 75 % 1014,0 hPa 0,0 l/m 9,0 km/h (2 Bft) O 90 0,3 C 0,2 C 5,3 km/h (1 Bft)
03.11.2013 18:00 3,8 C 76 % 1014,0 hPa 0,0 l/m 6,0 km/h (2 Bft) SO 135 -0,0 C 3,2 C 4,8 km/h (1 Bft)
03.11.2013 18:05 3,8 C 77 % 1014,0 hPa 0,0 l/m 4,2 km/h (1 Bft) S 180 0,1 C 3,4 C 5,3 km/h (1 Bft)
03.11.2013 18:10 3,9 C 77 % 1014,2 hPa 0,0 l/m 4,0 km/h (1 Bft) S 180 0,2 C 3,2 C 4,7 km/h (1 Bft)
03.11.2013 18:15 4,0 C 76 % 1014,2 hPa 0,0 l/m 4,8 km/h (1 Bft) S-SO 157 0,2 C 2,8 C 6,1 km/h (2 Bft)
03.11.2013 18:20 4,2 C 75 % 1014,2 hPa 0,0 l/m 5,5 km/h (1 Bft) S 180 0,2 C 2,8 C 5,3 km/h (1 Bft)
03.11.2013 18:25 4,1 C 75 % 1014,2 hPa 0,0 l/m 5,8 km/h (2 Bft) S-SO 157 0,1 C 2,8 C 11,3 km/h (2 Bft)
03.11.2013 18:28 4,0 C 75 % 1014,2 hPa 0,0 l/m 6,3 km/h (2 Bft) SO 135 -0,0 C 2,7 C 14,2 km/h (3 Bft)
03.11.2013 18:30 4,0 C 75 % 1014,2 hPa 0,0 l/m 6,3 km/h (2 Bft) SO 135 -0,0 C 2,7 C 14,2 km/h (3 Bft)
03.11.2013 18:35 4,0 C 75 % 1014,2 hPa 0,0 l/m 6,8 km/h (2 Bft) O-SO 112 -0,0 C 2,4 C 6,8 km/h (2 Bft)
03.11.2013 18:40 4,0 C 75 % 1014,2 hPa 0,0 l/m 6,8 km/h (2 Bft) SO 135 -0,0 C 2,2 C 6,8 km/h (2 Bft)
03.11.2013 18:45 4,1 C 74 % 1014,2 hPa 0,0 l/m 6,8 km/h (2 Bft) S-SO 157 -0,1 C 2,4 C 8,7 km/h (2 Bft)
03.11.2013 18:50 4,0 C 74 % 1014,1 hPa 0,0 l/m 6,6 km/h (2 Bft) SO 135 -0,2 C 2,6 C 5,0 km/h (1 Bft)
03.11.2013 18:55 4,2 C 73 % 1014,1 hPa 0,0 l/m 6,3 km/h (2 Bft) O-SO 112 -0,2 C 2,9 C 5,8 km/h (2 Bft)
03.11.2013 19:00 4,2 C 73 % 1014,1 hPa 0,0 l/m 5,3 km/h (1 Bft) S 180 -0,2 C 3,1 C 8,9 km/h (2 Bft)
03.11.2013 19:05 4,2 C 73 % 1014,1 hPa 0,0 l/m 5,3 km/h (1 Bft) O 90 -0,2 C 3,1 C 7,7 km/h (2 Bft)
03.11.2013 19:10 4,3 C 72 % 1014,1 hPa 0,0 l/m 6,1 km/h (2 Bft) S-SO 157 -0,3 C 3,1 C 6,0 km/h (2 Bft)
03.11.2013 19:15 4,2 C 72 % 1014,1 hPa 0,0 l/m 6,0 km/h (2 Bft) S-SO 157 -0,4 C 3,2 C 8,4 km/h (2 Bft)
03.11.2013 19:20 4,2 C 72 % 1014,1 hPa 0,0 l/m 4,5 km/h (1 Bft) SO 135 -0,4 C 3,4 C 7,1 km/h (2 Bft)
03.11.2013 19:25 4,2 C 72 % 1014,1 hPa 0,0 l/m 4,5 km/h (1 Bft) SO 135 -0,4 C 3,4 C 5,5 km/h (1 Bft)
03.11.2013 19:30 4,3 C 73 % 1014,3 hPa 0,0 l/m 6,1 km/h (2 Bft) SO 135 -0,1 C 2,9 C 9,0 km/h (2 Bft)
03.11.2013 19:35 4,4 C 73 % 1014,3 hPa 0,0 l/m 7,1 km/h (2 Bft) SO 135 -0,0 C 2,4 C 8,5 km/h (2 Bft)
03.11.2013 19:40 4,2 C 72 % 1014,3 hPa 0,0 l/m 7,1 km/h (2 Bft) O-SO 112 -0,4 C 2,4 C 3,4 km/h (1 Bft)
03.11.2013 19:45 4,1 C 73 % 1014,3 hPa 0,0 l/m 5,6 km/h (1 Bft) S 180 -0,3 C 3,4 C 6,1 km/h (2 Bft)
03.11.2013 19:50 3,7 C 74 % 1014,3 hPa 0,0 l/m 3,4 km/h (1 Bft) SO 135 -0,5 C 3,8 C 3,4 km/h (1 Bft)
03.11.2013 19:55 3,8 C 75 % 1014,3 hPa 0,0 l/m 3,7 km/h (1 Bft) SO 135 -0,2 C 3,3 C 10,0 km/h (2 Bft)
03.11.2013 20:00 3,9 C 76 % 1014,3 hPa 0,0 l/m 4,2 km/h (1 Bft) S-SO 157 0,1 C 3,2 C 2,9 km/h (1 Bft)
03.11.2013 20:05 4,0 C 76 % 1014,3 hPa 0,0 l/m 4,5 km/h (1 Bft) SO 135 0,2 C 3,0 C 7,7 km/h (2 Bft)
03.11.2013 20:10 3,7 C 76 % 1014,1 hPa 0,0 l/m 4,7 km/h (1 Bft) NW 315 -0,1 C 2,9 C 7,4 km/h (2 Bft)
03.11.2013 20:15 3,7 C 77 % 1014,1 hPa 0,0 l/m 6,0 km/h (2 Bft) S 180 0,1 C 2,4 C 5,6 km/h (1 Bft)
03.11.2013 20:20 3,4 C 78 % 1014,1 hPa 0,0 l/m 5,5 km/h (1 Bft) S-SO 157 -0,1 C 2,4 C 13,8 km/h (3 Bft)
03.11.2013 20:25 3,4 C 78 % 1014,1 hPa 0,0 l/m 5,1 km/h (1 Bft) S 180 -0,1 C 2,6 C 3,4 km/h (1 Bft)
03.11.2013 20:30 3,2 C 78 % 1014,2 hPa 0,0 l/m 4,8 km/h (1 Bft) S 180 -0,3 C 2,4 C 2,4 km/h (1 Bft)
03.11.2013 20:35 3,1 C 79 % 1014,2 hPa 0,0 l/m 3,7 km/h (1 Bft) SO 135 -0,2 C 2,7 C 3,7 km/h (1 Bft)
03.11.2013 20:40 2,9 C 79 % 1014,2 hPa 0,0 l/m 3,4 km/h (1 Bft) SO 135 -0,4 C 2,7 C 7,2 km/h (2 Bft)
03.11.2013 20:45 2,9 C 79 % 1014,2 hPa 0,0 l/m 3,4 km/h (1 Bft) O-SO 112 -0,4 C 2,7 C 5,5 km/h (1 Bft)
03.11.2013 20:50 2,7 C 79 % 1014,1 hPa 0,0 l/m 3,1 km/h (1 Bft) O 90 -0,6 C 2,9 C 1,6 km/h (1 Bft)
03.11.2013 20:55 2,7 C 81 % 1014,1 hPa 0,0 l/m 2,3 km/h (1 Bft) O-NO 67 -0,2 C 2,8 C 4,2 km/h (1 Bft)
03.11.2013 21:00 2,8 C 81 % 1014,1 hPa 0,0 l/m 2,4 km/h (1 Bft) O-SO 112 -0,1 C 2,6 C 4,5 km/h (1 Bft)
03.11.2013 21:05 2,8 C 81 % 1014,1 hPa 0,0 l/m 2,6 km/h (1 Bft) S 180 -0,1 C 2,5 C 3,2 km/h (1 Bft)
03.11.2013 21:10 3,1 C 79 % 1014,0 hPa 0,0 l/m 2,7 km/h (1 Bft) SO 135 -0,2 C 2,6 C 2,6 km/h (1 Bft)
03.11.2013 21:15 3,0 C 79 % 1014,0 hPa 0,0 l/m 2,9 km/h (1 Bft) O 90 -0,3 C 2,7 C 4,5 km/h (1 Bft)
03.11.2013 21:20 3,2 C 78 % 1014,0 hPa 0,0 l/m 3,4 km/h (1 Bft) SO 135 -0,3 C 2,7 C 9,2 km/h (2 Bft)
03.11.2013 21:25 3,2 C 78 % 1014,0 hPa 0,0 l/m 4,2 km/h (1 Bft) O-SO 112 -0,3 C 2,4 C 5,0 km/h (1 Bft)
03.11.2013 21:30 3,4 C 77 % 1013,9 hPa 0,0 l/m 4,3 km/h (1 Bft) S 180 -0,2 C 2,6 C 5,8 km/h (2 Bft)
03.11.2013 21:35 3,2 C 77 % 1013,9 hPa 0,0 l/m 4,0 km/h (1 Bft) O-SO 112 -0,4 C 2,8 C 5,1 km/h (1 Bft)
03.11.2013 21:40 3,1 C 77 % 1013,9 hPa 0,0 l/m 4,7 km/h (1 Bft) SO 135 -0,5 C 2,6 C 6,3 km/h (2 Bft)
03.11.2013 21:45 3,2 C 77 % 1013,9 hPa 0,0 l/m 5,8 km/h (2 Bft) S 180 -0,4 C 2,3 C 7,7 km/h (2 Bft)
03.11.2013 21:50 3,2 C 77 % 1013,8 hPa 0,0 l/m 6,3 km/h (2 Bft) S 180 -0,4 C 2,3 C 8,7 km/h (2 Bft)
03.11.2013 21:55 3,4 C 76 % 1013,8 hPa 0,0 l/m 5,8 km/h (2 Bft) S 180 -0,4 C 2,5 C 6,4 km/h (2 Bft)
03.11.2013 22:00 3,5 C 76 % 1013,8 hPa 0,0 l/m 5,0 km/h (1 Bft) NO 45 -0,3 C 2,8 C 3,5 km/h (1 Bft)
03.11.2013 22:05 3,5 C 75 % 1013,8 hPa 0,0 l/m 4,5 km/h (1 Bft) SO 135 -0,5 C 2,9 C 4,7 km/h (1 Bft)
03.11.2013 22:10 3,5 C 75 % 1013,6 hPa 0,0 l/m 3,5 km/h (1 Bft) S-SO 157 -0,5 C 3,2 C 2,7 km/h (1 Bft)
03.11.2013 22:15 3,2 C 75 % 1013,6 hPa 0,0 l/m 2,7 km/h (1 Bft) SO 135 -0,8 C 3,4 C 0,0 km/h (0 Bft)
03.11.2013 22:20 2,6 C 76 % 1013,6 hPa 0,0 l/m 1,6 km/h (1 Bft) S-SO 157 -1,2 C 3,0 C 0,0 km/h (0 Bft)
03.11.2013 22:25 2,8 C 77 % 1013,6 hPa 0,0 l/m 1,3 km/h (1 Bft) SO 135 -0,8 C 2,9 C 2,9 km/h (1 Bft)
03.11.2013 22:30 2,7 C 78 % 1013,3 hPa 0,0 l/m 1,8 km/h (1 Bft) O 90 -0,7 C 2,6 C 2,7 km/h (1 Bft)
03.11.2013 22:35 2,5 C 78 % 1013,3 hPa 0,0 l/m 2,4 km/h (1 Bft) O-NO 67 -0,9 C 2,3 C 4,3 km/h (1 Bft)
03.11.2013 22:40 2,4 C 79 % 1013,3 hPa 0,0 l/m 2,9 km/h (1 Bft) NO 45 -0,9 C 1,8 C 5,1 km/h (1 Bft)
03.11.2013 22:45 2,4 C 79 % 1013,3 hPa 0,0 l/m 3,5 km/h (1 Bft) O-NO 67 -0,9 C 1,3 C 4,3 km/h (1 Bft)
03.11.2013 22:50 2,3 C 80 % 1012,9 hPa 0,0 l/m 4,5 km/h (1 Bft) NO 45 -0,8 C 0,8 C 5,6 km/h (1 Bft)
03.11.2013 22:55 2,1 C 81 % 1012,9 hPa 0,0 l/m 4,3 km/h (1 Bft) O-NO 67 -0,8 C 0,8 C 5,6 km/h (1 Bft)
03.11.2013 23:00 2,0 C 81 % 1012,9 hPa 0,0 l/m 3,7 km/h (1 Bft) O-SO 112 -0,9 C 1,1 C 0,0 km/h (0 Bft)
03.11.2013 23:05 1,6 C 82 % 1012,9 hPa 0,0 l/m 2,6 km/h (1 Bft) O 90 -1,1 C 1,4 C 2,4 km/h (1 Bft)
03.11.2013 23:10 1,5 C 82 % 1012,6 hPa 0,0 l/m 0,6 km/h (0 Bft) O-NO 67 -1,2 C 0,9 C 1,9 km/h (1 Bft)
03.11.2013 23:15 1,5 C 83 % 1012,6 hPa 0,0 l/m 1,1 km/h (1 Bft) O 90 -1,1 C 0,6 C 5,3 km/h (1 Bft)
03.11.2013 23:20 1,4 C 84 % 1012,6 hPa 0,0 l/m 3,7 km/h (1 Bft) O-NO 67 -1,0 C -0,1 C 7,4 km/h (2 Bft)
03.11.2013 23:25 1,4 C 84 % 1012,6 hPa 0,0 l/m 5,0 km/h (1 Bft) O 90 -1,0 C -0,7 C 6,1 km/h (2 Bft)
03.11.2013 23:28 1,0 C 83 % 1012,2 hPa 0,0 l/m 2,9 km/h (1 Bft) N-NO 22 -1,6 C 0,4 C 0,0 km/h (0 Bft)
03.11.2013 23:30 1,0 C 83 % 1012,2 hPa 0,0 l/m 2,9 km/h (1 Bft) N-NO 22 -1,6 C 0,4 C 0,0 km/h (0 Bft)
03.11.2013 23:35 0,6 C 84 % 1012,2 hPa 0,0 l/m 0,6 km/h (0 Bft) N-NO 22 -1,8 C 0,2 C 0,0 km/h (0 Bft)
03.11.2013 23:40 0,6 C 85 % 1012,2 hPa 0,0 l/m 0,0 km/h (0 Bft) O-NO 67 -1,6 C -0,2 C 0,0 km/h (0 Bft)
03.11.2013 23:45 0,6 C 85 % 1012,2 hPa 0,0 l/m 0,3 km/h (0 Bft) O-SO 112 -1,6 C -0,3 C 0,0 km/h (0 Bft)
03.11.2013 23:50 0,5 C 86 % 1011,9 hPa 0,0 l/m 0,5 km/h (0 Bft) SO 135 -1,6 C -0,3 C 2,7 km/h (1 Bft)
03.11.2013 23:55 0,7 C 86 % 1011,9 hPa 0,0 l/m 0,8 km/h (0 Bft) SO 135 -1,4 C -0,2 C 1,8 km/h (1 Bft)
_ Min-Zeit 23:50 19:40 08:25 - 23:40 - - 23:35 13:00 23:45
Minimum _ 0,5 C 72 % 1008,0 hPa - 0,0 km/h (0 Bft) - - -1,8 C -8,3 C 0,0 km/h (0 Bft)
_ Max-Zeit 04:30 09:45 20:05 13:28 14:20 - - 09:15 09:25 14:20
Maximum _ 9,0 C 95 % 1014,3 hPa 0,7 l/m 22,7 km/h
S (4 Bft)
- - 8,0 C 9,2 C 45,5 km/h
S (6 Bft)
Durchschnitt _ 5,5 C 87 % 1011,8 hPa #11,7 l/m 6,8 km/h (2 Bft) S - 3,5 C 2,6 C 8,6 km/h (2 Bft)